Time;durP1;ratioP1;P1;durP2;ratioP2;P2;SDS_P1;SDS_P2;PMS_P1;PMS_P2;Temp;Humidity;BMP_temperature;BMP_pressure;BME280_temperature;BME280_humidity;BME280_pressure;Samples;Min_cycle;Max_cycle;Signal;HPM_P1;HPM_P2
2022/01/11 00:00:38;;;;;;;36.85;14.87;;;;;;;-0.63;100.00;147518.05;1717326;82;21351;-61
2022/01/11 00:03:18;;;;;;;36.73;16.10;;;;;;;-0.66;100.00;147510.34;1717169;83;21068;-60
2022/01/11 00:08:15;;;;;;;34.75;16.15;;;;;;;-0.68;100.00;147505.19;1717183;83;21083;-61
2022/01/11 00:10:50;;;;;;;33.75;15.20;;;;;;;-0.69;100.00;147502.63;1717079;82;21455;-61
2022/01/11 00:13:18;;;;;;;30.48;14.03;;;;;;;-0.70;100.00;147500.06;1717605;82;21035;-61
2022/01/11 00:15:47;;;;;;;34.38;15.98;;;;;;;-0.71;100.00;147497.48;1717140;81;21612;-61
2022/01/11 00:18:15;;;;;;;42.25;12.30;;;;;;;-0.74;100.00;147489.77;1717465;83;21055;-61
2022/01/11 00:20:42;;;;;;;29.98;13.68;;;;;;;-0.77;100.00;147483.33;1717170;83;21013;-61
2022/01/11 00:25:39;;;;;;;39.30;15.50;;;;;;;-0.78;100.00;147479.44;1751707;81;22341;-61
2022/01/11 00:28:07;;;;;;;27.62;12.53;;;;;;;-0.82;100.00;147469.16;1707808;83;21059;-60
2022/01/11 00:30:38;;;;;;;27.22;12.55;;;;;;;-0.83;100.00;147466.59;1748920;81;20913;-60
2022/01/11 00:33:08;;;;;;;30.43;13.80;;;;;;;-0.84;100.00;147465.34;1748730;82;21163;-61
2022/01/11 00:36:07;;;;;;;21.68;10.78;;;;;;;-0.85;99.79;147461.45;1708500;83;20989;-61
2022/01/11 00:38:09;;;;;;;32.45;12.93;;;;;;;-0.88;99.48;147455.06;1732768;82;21948;-61
2022/01/11 00:40:37;;;;;;;31.07;15.40;;;;;;;-0.91;99.89;147448.59;1748595;82;20985;-62
2022/01/11 00:43:05;;;;;;;32.83;14.85;;;;;;;-0.92;100.00;147446.03;1748485;82;21099;-61
2022/01/11 00:45:32;;;;;;;33.98;14.83;;;;;;;-0.90;100.00;147451.17;1738547;81;21004;-61
2022/01/11 00:48:00;;;;;;;29.55;14.53;;;;;;;-0.90;100.00;147451.17;1718395;83;21101;-61
2022/01/11 00:50:28;;;;;;;34.00;13.68;;;;;;;-0.88;100.00;147456.31;1692709;83;21890;-61
2022/01/11 00:52:54;;;;;;;25.15;10.50;;;;;;;-0.89;100.00;147452.44;1718581;83;21029;-61
2022/01/11 00:55:21;;;;;;;31.30;12.03;;;;;;;-0.90;100.00;147451.17;1719137;83;21404;-62
2022/01/11 00:57:48;;;;;;;30.45;13.35;;;;;;;-0.94;100.00;147439.59;1691605;83;21135;-62
2022/01/11 01:00:16;;;;;;;31.30;14.03;;;;;;;-0.97;100.00;147433.19;1718204;83;21772;-61
2022/01/11 01:02:43;;;;;;;33.42;13.35;;;;;;;-0.99;100.00;147428.05;1718102;83;22411;-60
2022/01/11 01:05:10;;;;;;;43.48;16.27;;;;;;;-1.02;100.00;147420.28;1718043;83;21087;-60
2022/01/11 01:07:36;;;;;;;34.20;15.72;;;;;;;-1.02;100.00;147420.28;1718325;83;20962;-62
2022/01/11 01:10:15;;;;;;;41.83;15.83;;;;;;;-1.02;100.00;147420.28;1716256;83;21089;-62
2022/01/11 01:12:36;;;;;;;34.18;14.60;;;;;;;-1.02;100.00;147421.59;1714069;83;21086;-61
2022/01/11 01:15:04;;;;;;;43.52;17.80;;;;;;;-1.04;100.00;147415.16;1712317;83;21155;-60
2022/01/11 01:17:32;;;;;;;44.40;17.80;;;;;;;-1.07;100.00;147407.44;1672009;84;20901;-61
2022/01/11 01:19:59;;;;;;;37.95;14.83;;;;;;;-1.07;100.00;147407.44;1701462;83;21004;-60
2022/01/11 01:22:26;;;;;;;36.42;16.00;;;;;;;-1.07;100.00;147407.44;1702039;83;20945;-60
2022/01/11 01:24:53;;;;;;;37.05;12.93;;;;;;;-1.09;100.00;147403.61;1701409;83;21067;-60
2022/01/11 01:27:19;;;;;;;34.40;14.10;;;;;;;-1.12;100.00;147394.59;1745323;82;21120;-60
2022/01/11 01:29:46;;;;;;;33.53;13.13;;;;;;;-1.17;100.00;147384.31;1744740;82;21307;-60
2022/01/11 01:32:13;;;;;;;38.35;15.50;;;;;;;-1.21;100.00;147372.73;1745295;82;20973;-60
2022/01/11 01:34:40;;;;;;;42.85;13.98;;;;;;;-1.25;100.00;147363.72;1745515;81;21442;-60
2022/01/11 01:37:07;;;;;;;38.65;14.28;;;;;;;-1.26;100.00;147361.16;1745369;82;21092;-60
2022/01/11 01:39:35;;;;;;;36.17;14.93;;;;;;;-1.29;100.00;147353.44;1745674;82;21439;-61
2022/01/11 01:42:07;;;;;;;39.58;15.35;;;;;;;-1.32;100.00;147345.73;1745534;82;21052;-61
2022/01/11 01:44:34;;;;;;;36.23;14.68;;;;;;;-1.32;100.00;147345.73;1745266;81;21382;-61
2022/01/11 01:47:01;;;;;;;30.25;12.88;;;;;;;-1.31;100.00;147348.31;1745788;81;21032;-61
2022/01/11 01:49:30;;;;;;;34.45;15.68;;;;;;;-1.30;100.00;147350.88;1722742;81;21136;-60
2022/01/11 01:51:57;;;;;;;34.15;14.33;;;;;;;-1.29;100.00;147353.44;1751670;81;21759;-61
2022/01/11 01:54:25;;;;;;;28.95;12.37;;;;;;;-1.27;100.00;147358.58;1752178;81;21513;-61
2022/01/11 01:56:52;;;;;;;31.90;13.35;;;;;;;-1.30;100.00;147350.88;1751392;81;21093;-61
2022/01/11 01:59:19;;;;;;;34.23;14.53;;;;;;;-1.34;100.00;147340.59;1722146;81;21081;-62
2022/01/11 02:01:48;;;;;;;33.60;13.18;;;;;;;-1.36;100.00;147335.47;1728499;81;21081;-65
2022/01/11 02:04:17;;;;;;;30.90;11.60;;;;;;;-1.40;100.00;147326.44;1715858;83;21130;-65
2022/01/11 02:06:46;;;;;;;30.08;12.75;;;;;;;-1.43;100.00;147317.48;1715674;83;20956;-64
2022/01/11 02:09:15;;;;;;;29.95;10.65;;;;;;;-1.51;100.00;147299.45;1715863;83;21105;-64
2022/01/11 02:11:41;;;;;;;29.23;12.73;;;;;;;-1.61;100.00;147275.03;1718310;82;21467;-64
2022/01/11 02:14:09;;;;;;;30.25;12.37;;;;;;;-1.68;100.00;147257.06;1718569;83;21482;-64
2022/01/11 02:16:36;;;;;;;28.17;12.45;;;;;;;-1.74;99.97;147242.91;1716250;83;22010;-64
2022/01/11 02:19:03;;;;;;;24.52;12.03;;;;;;;-1.79;99.91;147230.06;1702452;84;21436;-64
2022/01/11 02:21:30;;;;;;;29.05;11.30;;;;;;;-1.84;99.98;147217.22;1703254;84;21489;-64
2022/01/11 02:23:59;;;;;;;30.90;11.55;;;;;;;-1.88;100.00;147206.91;1702800;83;21111;-64
2022/01/11 02:26:27;;;;;;;27.98;13.00;;;;;;;-1.90;100.00;147201.77;1703694;84;20948;-65
2022/01/11 02:28:54;;;;;;;22.02;9.93;;;;;;;-1.92;100.00;147197.94;1702825;83;21148;-62
2022/01/11 02:31:21;;;;;;;20.62;8.48;;;;;;;-1.93;99.78;147194.06;1703406;84;21087;-63
2022/01/11 02:33:52;;;;;;;30.27;8.33;;;;;;;-1.95;99.41;147188.94;1702727;83;21016;-65
2022/01/11 02:36:36;;;;;;;20.40;7.37;;;;;;;-2.00;99.05;147176.09;1702343;84;21059;-62
2022/01/11 02:39:18;;;;;;;25.40;10.63;;;;;;;-2.04;98.87;147167.09;1702913;83;21151;-64
2022/01/11 02:41:55;;;;;;;25.72;9.43;;;;;;;-2.05;99.39;147165.83;1702912;83;21135;-63
2022/01/11 02:44:24;;;;;;;19.05;8.80;;;;;;;-2.05;99.26;147165.83;1702693;83;20944;-64
2022/01/11 02:46:51;;;;;;;24.87;9.33;;;;;;;-2.05;98.59;147165.83;1703515;83;21091;-64
2022/01/11 02:49:18;;;;;;;17.13;8.73;;;;;;;-2.06;98.79;147163.27;1749329;82;21438;-61
2022/01/11 02:51:47;;;;;;;23.87;9.20;;;;;;;-2.06;98.35;147161.95;1748772;82;21402;-62
2022/01/11 02:54:13;;;;;;;15.13;8.23;;;;;;;-2.09;97.69;147155.56;1752426;81;22396;-61
2022/01/11 02:56:40;;;;;;;20.90;8.90;;;;;;;-2.11;97.10;147149.13;1753733;81;21430;-61
2022/01/11 02:59:07;;;;;;;15.20;7.23;;;;;;;-2.13;96.74;147143.98;1753578;81;21047;-62
2022/01/11 03:01:34;;;;;;;19.82;8.30;;;;;;;-2.17;96.77;147134.97;1754027;81;21383;-62
2022/01/11 03:04:01;;;;;;;14.60;7.00;;;;;;;-2.18;96.96;147133.72;1753720;81;21060;-61
2022/01/11 03:06:29;;;;;;;23.02;8.33;;;;;;;-2.18;97.60;147133.72;1754378;81;21378;-61
2022/01/11 03:08:55;;;;;;;19.17;8.60;;;;;;;-2.16;96.75;147137.53;1753421;81;21075;-60
2022/01/11 03:11:25;;;;;;;15.68;7.70;;;;;;;-2.20;96.66;147127.28;1752521;81;21079;-60
2022/01/11 03:13:51;;;;;;;29.37;9.10;;;;;;;-2.19;97.05;147129.84;1751623;81;21052;-61
2022/01/11 03:16:19;;;;;;;19.17;9.17;;;;;;;-2.19;96.96;147129.84;1754907;81;21016;-61
2022/01/11 03:18:47;;;;;;;19.05;8.85;;;;;;;-2.21;96.84;147126.02;1721964;83;21849;-61
2022/01/11 03:21:15;;;;;;;20.75;9.23;;;;;;;-2.20;97.77;147127.28;1694671;83;21100;-61
2022/01/11 03:23:42;;;;;;;19.55;8.33;;;;;;;-2.20;96.78;147127.28;1721429;83;21024;-61
2022/01/11 03:26:09;;;;;;;22.58;9.05;;;;;;;-2.22;96.67;147123.41;1721619;83;21139;-61
2022/01/11 03:28:37;;;;;;;16.55;7.70;;;;;;;-2.25;96.47;147114.44;1722206;83;20985;-62
2022/01/11 03:31:04;;;;;;;17.42;7.75;;;;;;;-2.29;96.39;147105.44;1721283;83;22431;-61
2022/01/11 03:33:32;;;;;;;12.88;6.45;;;;;;;-2.29;96.87;147104.17;1722028;82;20961;-61
2022/01/11 03:36:01;;;;;;;16.10;6.70;;;;;;;-2.32;96.79;147099.03;1721888;82;20964;-60
2022/01/11 03:38:30;;;;;;;18.02;8.08;;;;;;;-2.34;96.33;147093.86;1721994;83;21437;-61
2022/01/11 03:40:58;;;;;;;14.93;6.87;;;;;;;-2.35;97.17;147091.28;1721944;82;21068;-61
2022/01/11 03:43:26;;;;;;;14.73;6.60;;;;;;;-2.35;96.60;147091.28;1722217;83;21914;-61
2022/01/11 03:45:53;;;;;;;15.07;6.07;;;;;;;-2.38;95.82;147083.59;1720867;82;21222;-61
2022/01/11 03:48:20;;;;;;;15.32;7.17;;;;;;;-2.39;96.48;147081.03;1720467;82;21009;-61
2022/01/11 03:50:52;;;;;;;16.03;7.80;;;;;;;-2.37;96.71;147086.16;1720421;82;20886;-61
2022/01/11 03:53:18;;;;;;;22.53;7.20;;;;;;;-2.37;97.20;147086.16;1717294;83;21031;-61
2022/01/11 03:58:26;;;;;;;24.05;7.45;;;;;;;-2.38;97.37;147082.33;1750967;81;21000;-61
2022/01/11 04:00:51;;;;;;;17.05;7.25;;;;;;;-2.39;97.84;147081.03;1680172;85;21107;-61
2022/01/11 04:03:18;;;;;;;19.53;7.60;;;;;;;-2.39;97.62;147079.77;1749453;82;21072;-61
2022/01/11 04:05:46;;;;;;;15.50;7.20;;;;;;;-2.40;98.20;147078.45;1749610;82;20965;-61
2022/01/11 04:08:13;;;;;;;26.95;8.80;;;;;;;-2.38;98.64;147082.33;1680096;84;21184;-61
2022/01/11 04:10:41;;;;;;;16.97;8.53;;;;;;;-2.39;98.59;147081.03;1749161;81;20993;-61
2022/01/11 04:13:08;;;;;;;17.93;7.97;;;;;;;-2.38;99.10;147082.33;1749115;82;21086;-61
2022/01/11 04:15:34;;;;;;;16.13;7.57;;;;;;;-2.38;98.91;147083.59;1702801;83;20970;-61
2022/01/11 04:18:02;;;;;;;14.98;7.00;;;;;;;-2.40;99.04;147077.20;1721547;82;21927;-61
2022/01/11 04:20:29;;;;;;;17.93;8.13;;;;;;;-2.44;98.53;147068.19;1722128;83;21085;-61
2022/01/11 04:22:56;;;;;;;18.20;7.57;;;;;;;-2.45;99.07;147065.63;1721606;82;21099;-62
2022/01/11 04:25:23;;;;;;;24.75;8.80;;;;;;;-2.45;99.01;147065.63;1721979;83;21056;-61
2022/01/11 04:27:52;;;;;;;17.70;9.03;;;;;;;-2.47;99.07;147061.75;1721893;83;21095;-61
2022/01/11 04:30:19;;;;;;;26.33;9.40;;;;;;;-2.48;99.63;147057.94;1721979;82;21722;-63
2022/01/11 04:32:46;;;;;;;19.77;8.93;;;;;;;-2.47;100.00;147060.50;1721931;82;21139;-62
2022/01/11 04:35:16;;;;;;;23.67;9.85;;;;;;;-2.49;99.56;147056.62;1721829;83;20984;-63
2022/01/11 04:37:45;;;;;;;18.00;7.57;;;;;;;-2.51;99.67;147050.22;1722491;82;20917;-63
2022/01/11 04:40:13;;;;;;;20.10;8.17;;;;;;;-2.54;99.52;147042.47;1721964;83;21036;-64
2022/01/11 04:42:41;;;;;;;22.23;10.53;;;;;;;-2.56;99.42;147037.34;1719674;82;21024;-64
2022/01/11 04:45:11;;;;;;;15.87;7.63;;;;;;;-2.56;99.76;147038.66;1708446;83;21924;-64
2022/01/11 04:47:38;;;;;;;21.93;9.67;;;;;;;-2.57;99.63;147036.09;1678763;84;20957;-63
2022/01/11 04:50:05;;;;;;;31.75;10.15;;;;;;;-2.56;99.91;147037.34;1720372;82;21104;-63
2022/01/11 04:52:33;;;;;;;22.47;8.87;;;;;;;-2.59;100.00;147032.22;1709019;82;21017;-64
2022/01/11 04:55:00;;;;;;;23.17;8.77;;;;;;;-2.58;100.00;147033.53;1708977;83;21108;-64
2022/01/11 04:57:26;;;;;;;21.40;9.07;;;;;;;-2.59;99.65;147030.95;1709601;83;21136;-63
2022/01/11 04:59:53;;;;;;;20.00;8.50;;;;;;;-2.63;99.31;147021.95;1708790;83;21228;-64
2022/01/11 05:02:20;;;;;;;15.07;8.00;;;;;;;-2.65;99.35;147015.56;1709109;83;21254;-64
2022/01/11 05:04:47;;;;;;;18.73;8.77;;;;;;;-2.69;99.01;147006.56;1680951;83;20970;-63
2022/01/11 05:07:14;;;;;;;16.27;7.67;;;;;;;-2.71;99.33;147001.42;1709240;83;21052;-63
2022/01/11 05:09:41;;;;;;;20.47;9.23;;;;;;;-2.75;98.84;146991.16;1709134;83;21126;-63
2022/01/11 05:12:10;;;;;;;24.80;9.63;;;;;;;-2.79;99.06;146980.84;1699512;82;21080;-63
2022/01/11 05:14:39;;;;;;;20.57;9.20;;;;;;;-2.78;99.63;146983.41;1695740;84;21024;-63
2022/01/11 05:17:06;;;;;;;26.27;8.57;;;;;;;-2.75;100.00;146991.16;1695000;83;21024;-65
2022/01/11 05:19:33;;;;;;;20.43;9.37;;;;;;;-2.73;100.00;146996.30;1726087;81;21129;-63
2022/01/11 05:22:00;;;;;;;20.37;8.73;;;;;;;-2.75;99.89;146992.42;1715845;83;21130;-63
2022/01/11 05:24:26;;;;;;;16.32;7.55;;;;;;;-2.77;99.66;146985.98;1716236;83;20951;-63
2022/01/11 05:26:54;;;;;;;16.27;8.17;;;;;;;-2.80;99.70;146978.28;1715656;83;21720;-63
2022/01/11 05:29:21;;;;;;;16.27;7.70;;;;;;;-2.82;99.96;146973.16;1716393;83;21002;-64
2022/01/11 05:31:48;;;;;;;19.77;8.57;;;;;;;-2.83;100.00;146970.59;1715813;83;21561;-64
2022/01/11 05:34:15;;;;;;;14.17;7.23;;;;;;;-2.82;100.00;146973.16;1715832;83;21130;-64
2022/01/11 05:36:41;;;;;;;18.63;6.70;;;;;;;-2.83;100.00;146971.91;1716010;83;20985;-66
2022/01/11 05:39:09;;;;;;;16.43;6.77;;;;;;;-2.87;100.00;146961.63;1715924;83;20985;-63
2022/01/11 05:41:36;;;;;;;20.00;8.57;;;;;;;-2.92;99.74;146948.75;1687792;83;21105;-63
2022/01/11 05:44:03;;;;;;;16.93;8.53;;;;;;;-2.97;100.00;146935.94;1716206;82;21049;-64
2022/01/11 05:46:31;;;;;;;17.43;6.70;;;;;;;-3.02;99.76;146924.36;1746256;82;21227;-63
2022/01/11 05:48:58;;;;;;;11.07;5.80;;;;;;;-3.01;100.00;146926.94;1681616;84;21035;-63
2022/01/11 05:51:26;;;;;;;13.37;6.93;;;;;;;-3.02;100.00;146924.36;1703059;83;21035;-63
2022/01/11 05:53:56;;;;;;;22.17;7.07;;;;;;;-3.07;99.58;146911.53;1746177;82;38844;-63
2022/01/11 05:56:23;;;;;;;12.03;6.40;;;;;;;-3.12;99.92;146898.72;1681751;85;21595;-64
2022/01/11 05:58:52;;;;;;;12.03;5.00;;;;;;;-3.17;99.38;146887.16;1702387;83;21501;-65
2022/01/11 06:01:19;;;;;;;15.03;5.93;;;;;;;-3.21;99.72;146876.89;1745967;82;21065;-64
2022/01/11 06:03:46;;;;;;;17.37;5.97;;;;;;;-3.24;99.34;146870.45;1681675;85;21352;-63
2022/01/11 06:06:13;;;;;;;19.00;8.07;;;;;;;-3.29;99.09;146857.63;1702470;84;21107;-63
2022/01/11 06:08:40;;;;;;;17.50;6.30;;;;;;;-3.32;99.37;146849.94;1746120;82;21009;-64
2022/01/11 06:11:07;;;;;;;15.07;6.33;;;;;;;-3.35;98.74;146842.25;1746424;81;21528;-64
2022/01/11 06:13:36;;;;;;;14.77;6.03;;;;;;;-3.40;98.52;146830.69;1751545;81;20981;-63
2022/01/11 06:16:05;;;;;;;11.43;5.10;;;;;;;-3.44;98.50;146820.42;1696672;83;21435;-63
2022/01/11 06:18:31;;;;;;;13.93;5.23;;;;;;;-3.47;97.91;146813.98;1751702;81;21379;-64
2022/01/11 06:21:03;;;;;;;9.10;4.63;;;;;;;-3.52;97.33;146801.17;1749766;81;20925;-64
2022/01/11 06:23:30;;;;;;;16.53;6.00;;;;;;;-3.59;97.14;146783.22;1751994;81;21120;-64
2022/01/11 06:25:57;;;;;;;12.07;5.67;;;;;;;-3.60;97.84;146780.66;1751150;81;21477;-64
2022/01/11 06:28:23;;;;;;;9.40;4.97;;;;;;;-3.61;97.25;146778.09;1751922;81;21059;-64
2022/01/11 06:30:50;;;;;;;10.73;5.70;;;;;;;-3.67;96.61;146763.97;1751164;81;21740;-64
2022/01/11 06:33:17;;;;;;;10.70;5.23;;;;;;;-3.72;96.33;146751.16;1751489;81;21032;-64
2022/01/11 06:35:44;;;;;;;11.40;4.67;;;;;;;-3.74;97.27;146746.03;1751846;81;21139;-65
2022/01/11 06:38:11;;;;;;;6.53;3.37;;;;;;;-3.74;97.25;146747.28;1751712;81;20992;-64
2022/01/11 06:40:38;;;;;;;10.70;5.30;;;;;;;-3.75;96.35;146744.72;1760003;80;21434;-65
2022/01/11 06:43:06;;;;;;;14.90;5.50;;;;;;;-3.77;96.03;146739.59;1760276;80;21057;-64
2022/01/11 06:45:35;;;;;;;12.03;5.87;;;;;;;-3.74;97.33;146747.28;1745286;81;20949;-63
2022/01/11 06:48:05;;;;;;;15.43;5.97;;;;;;;-3.69;97.27;146757.53;1753714;80;22006;-64
2022/01/11 06:50:32;;;;;;;16.53;5.77;;;;;;;-3.64;98.09;146771.66;1760934;80;21485;-64
2022/01/11 06:52:59;;;;;;;13.20;6.23;;;;;;;-3.61;96.80;146778.09;1751151;80;21348;-63
2022/01/11 06:55:26;;;;;;;14.90;5.73;;;;;;;-3.64;96.43;146770.41;1752533;80;21132;-64
2022/01/11 06:57:55;;;;;;;10.70;5.70;;;;;;;-3.68;96.28;146761.41;1755941;80;21135;-63
2022/01/11 07:00:22;;;;;;;8.07;4.33;;;;;;;-3.66;97.24;146766.53;1757933;80;21091;-64
2022/01/11 07:02:51;;;;;;;14.47;7.77;;;;;;;-3.65;96.67;146767.78;1755685;80;21090;-64
2022/01/11 07:05:33;;;;;;;12.80;5.40;;;;;;;-3.66;96.90;146765.22;1746156;80;21079;-66
2022/01/11 07:07:59;;;;;;;11.77;5.50;;;;;;;-3.64;97.48;146770.41;1751498;80;21245;-64
2022/01/11 07:10:27;;;;;;;12.23;5.33;;;;;;;-3.64;96.74;146771.66;1754174;80;21022;-64
2022/01/11 07:12:57;;;;;;;14.67;7.00;;;;;;;-3.63;96.71;146772.97;1751786;81;21123;-64
2022/01/11 07:15:24;;;;;;;15.93;5.20;;;;;;;-3.63;97.29;146772.97;1746731;80;21125;-64
2022/01/11 07:17:51;;;;;;;15.40;6.60;;;;;;;-3.63;97.85;146774.22;1725414;81;21069;-64
2022/01/11 07:20:18;;;;;;;15.33;6.83;;;;;;;-3.61;97.75;146778.09;1747896;80;21825;-65
2022/01/11 07:22:45;;;;;;;15.87;6.87;;;;;;;-3.60;98.65;146780.66;1747303;80;21069;-64
2022/01/11 07:25:12;;;;;;;12.10;5.27;;;;;;;-3.61;97.81;146779.34;1749603;80;21377;-64
2022/01/11 07:27:39;;;;;;;14.97;7.60;;;;;;;-3.66;97.47;146766.53;1754160;80;21014;-65
2022/01/11 07:30:08;;;;;;;11.33;6.00;;;;;;;-3.66;98.28;146765.22;1752053;80;21317;-64
2022/01/11 07:32:37;;;;;;;11.90;5.60;;;;;;;-3.68;97.89;146760.09;1750875;80;21035;-64
2022/01/11 07:35:07;;;;;;;11.43;5.67;;;;;;;-3.71;97.61;146753.72;1686742;83;21103;-64
2022/01/11 07:37:36;;;;;;;9.50;4.43;;;;;;;-3.74;97.70;146747.28;1684147;82;21536;-64
2022/01/11 07:40:06;;;;;;;11.70;5.50;;;;;;;-3.75;96.65;146743.45;1752066;80;21119;-65
2022/01/11 07:42:35;;;;;;;14.40;5.33;;;;;;;-3.79;96.46;146734.47;1744621;80;20936;-64
2022/01/11 07:45:05;;;;;;;11.33;4.77;;;;;;;-3.84;95.96;146721.64;1713236;80;21113;-64
2022/01/11 07:47:32;;;;;;;18.70;6.13;;;;;;;-3.85;96.48;146717.78;1752450;81;21085;-64
2022/01/11 07:49:59;;;;;;;17.33;4.47;;;;;;;-3.85;96.47;146719.08;1745090;80;21667;-64
2022/01/11 07:52:26;;;;;;;11.97;5.23;;;;;;;-3.86;95.80;146716.52;1750395;80;21532;-63
2022/01/11 07:54:53;;;;;;;10.13;4.93;;;;;;;-3.85;96.04;146717.78;1682978;82;21535;-64
2022/01/11 07:57:21;;;;;;;11.17;4.70;;;;;;;-3.87;95.65;146713.91;1710218;82;21521;-64
2022/01/11 07:59:48;;;;;;;6.80;3.53;;;;;;;-3.85;96.30;146719.08;1750130;81;21059;-63
2022/01/11 08:02:16;;;;;;;7.53;4.00;;;;;;;-3.85;94.31;146719.08;1750238;80;21137;-63
2022/01/11 08:04:44;;;;;;;6.73;3.47;;;;;;;-3.84;94.39;146721.64;1748346;80;21108;-64
2022/01/11 08:07:12;;;;;;;8.17;4.67;;;;;;;-3.83;94.47;146724.20;1714126;81;21093;-63
2022/01/11 08:09:43;;;;;;;10.77;3.73;;;;;;;-3.80;94.67;146731.91;1711280;82;21078;-65
2022/01/11 08:12:11;;;;;;;6.77;3.80;;;;;;;-3.79;94.00;146733.16;1699833;82;21770;-62
2022/01/11 08:14:39;;;;;;;11.33;4.47;;;;;;;-3.81;93.39;146729.34;1692682;82;21645;-65
2022/01/11 08:17:07;;;;;;;6.97;4.10;;;;;;;-3.78;94.37;146737.03;1700262;82;21126;-62
2022/01/11 08:19:36;;;;;;;10.77;4.90;;;;;;;-3.75;94.35;146743.45;1693268;82;21104;-62
2022/01/11 08:22:03;;;;;;;13.33;6.03;;;;;;;-3.70;94.55;146754.97;1695931;82;21120;-60
2022/01/11 08:24:38;;;;;;;8.65;4.95;;;;;;;-3.65;94.42;146767.78;1692707;83;21117;-61
2022/01/11 08:27:05;;;;;;;16.30;5.23;;;;;;;-3.65;92.96;146767.78;1692862;82;21712;-61
2022/01/11 08:29:32;;;;;;;9.23;4.27;;;;;;;-3.63;93.63;146772.97;1699355;82;21127;-61
2022/01/11 08:32:02;;;;;;;12.00;4.37;;;;;;;-3.65;91.91;146767.78;1693385;83;21072;-61
2022/01/11 08:34:30;;;;;;;9.50;4.43;;;;;;;-3.69;92.12;146758.84;1694911;82;21151;-61
2022/01/11 08:36:59;;;;;;;12.30;4.53;;;;;;;-3.68;92.89;146760.09;1695019;82;21103;-61
2022/01/11 08:39:26;;;;;;;10.90;5.03;;;;;;;-3.68;92.38;146760.09;1693319;82;21532;-61
2022/01/11 08:41:54;;;;;;;12.63;4.97;;;;;;;-3.67;93.35;146763.97;1694522;82;21063;-63
2022/01/11 08:44:24;;;;;;;6.80;3.83;;;;;;;-3.64;94.02;146770.41;1696760;82;21067;-60
2022/01/11 08:46:52;;;;;;;10.43;5.47;;;;;;;-3.62;93.91;146775.53;1744155;80;21706;-62
2022/01/11 08:49:21;;;;;;;14.93;4.93;;;;;;;-3.64;93.66;146770.41;1687802;83;21131;-62
2022/01/11 08:51:48;;;;;;;11.67;4.33;;;;;;;-3.64;93.55;146770.41;1701275;82;21108;-61
2022/01/11 08:54:15;;;;;;;7.20;3.73;;;;;;;-3.66;94.06;146765.22;1722191;82;21137;-61
2022/01/11 08:56:42;;;;;;;8.53;3.53;;;;;;;-3.71;92.66;146753.72;1715511;81;21120;-62
2022/01/11 08:59:10;;;;;;;8.40;3.67;;;;;;;-3.73;92.31;146748.59;1708021;82;21120;-62
2022/01/11 09:01:38;;;;;;;7.43;3.63;;;;;;;-3.72;92.89;146749.84;1684506;83;21164;-62
2022/01/11 09:04:07;;;;;;;6.53;3.60;;;;;;;-3.71;93.07;146752.41;1686139;83;21519;-62
2022/01/11 09:06:37;;;;;;;6.90;4.23;;;;;;;-3.70;92.80;146756.28;1704169;82;21182;-62
2022/01/11 09:09:05;;;;;;;6.83;3.57;;;;;;;-3.66;93.52;146765.22;1676414;82;21078;-60
2022/01/11 09:11:31;;;;;;;7.40;3.83;;;;;;;-3.64;93.37;146770.41;1705330;82;21094;-63
2022/01/11 09:14:00;;;;;;;11.57;4.60;;;;;;;-3.66;93.24;146766.53;1730760;81;21085;-62
2022/01/11 09:16:26;;;;;;;10.87;5.37;;;;;;;-3.65;93.61;146769.09;1725380;82;21586;-63
2022/01/11 09:18:54;;;;;;;13.43;4.07;;;;;;;-3.63;94.33;146772.97;1757228;80;21067;-62
2022/01/11 09:21:24;;;;;;;13.27;5.67;;;;;;;-3.63;93.55;146772.97;1733935;80;21076;-61
2022/01/11 09:23:52;;;;;;;8.63;4.33;;;;;;;-3.62;93.07;146775.53;1730782;80;21473;-62
2022/01/11 09:26:23;;;;;;;8.50;3.77;;;;;;;-3.66;92.42;146766.53;1755698;80;21115;-64
2022/01/11 09:28:52;;;;;;;6.87;3.93;;;;;;;-3.67;92.86;146763.97;1757752;79;22078;-66
2022/01/11 09:31:19;;;;;;;8.33;3.77;;;;;;;-3.68;92.72;146761.41;1756612;80;21057;-61
2022/01/11 09:33:46;;;;;;;9.13;4.50;;;;;;;-3.67;93.15;146762.66;1752820;80;21805;-61
2022/01/11 09:36:13;;;;;;;12.30;4.33;;;;;;;-3.66;94.01;146765.22;1756342;80;21548;-61
2022/01/11 09:38:40;;;;;;;11.27;5.07;;;;;;;-3.65;93.51;146767.78;1728795;80;21142;-62
2022/01/11 09:41:07;;;;;;;11.53;5.13;;;;;;;-3.64;93.37;146770.41;1750409;80;21610;-60
2022/01/11 09:43:37;;;;;;;9.57;5.40;;;;;;;-3.64;93.49;146770.41;1750802;80;21506;-62
2022/01/11 09:46:06;;;;;;;13.43;5.47;;;;;;;-3.65;92.96;146767.78;1750801;80;21041;-62
2022/01/11 09:48:35;;;;;;;10.30;4.40;;;;;;;-3.66;93.33;146766.53;1754005;81;21090;-61
2022/01/11 09:51:02;;;;;;;10.17;4.93;;;;;;;-3.64;94.18;146770.41;1754611;80;21071;-61
2022/01/11 09:53:29;;;;;;;11.17;4.77;;;;;;;-3.61;94.12;146779.34;1749775;80;21442;-61
2022/01/11 09:55:57;;;;;;;9.87;4.93;;;;;;;-3.57;94.02;146788.34;1753194;80;21069;-61
2022/01/11 09:58:26;;;;;;;8.93;5.10;;;;;;;-3.56;93.86;146790.91;1751343;80;21091;-60
2022/01/11 10:00:53;;;;;;;10.07;4.97;;;;;;;-3.56;93.67;146789.61;1751236;80;21584;-61
2022/01/11 10:03:28;;;;;;;12.63;6.33;;;;;;;-3.55;94.89;146793.47;1718718;80;21002;-61
2022/01/11 10:05:59;;;;;;;27.40;5.87;;;;;;;-3.54;94.02;146794.73;1757486;80;21856;-61
2022/01/11 10:08:29;;;;;;;16.17;6.77;;;;;;;-3.55;93.85;146793.47;1728971;80;22479;-61
2022/01/11 10:10:59;;;;;;;9.23;4.70;;;;;;;-3.57;92.62;146788.34;1753920;80;21111;-62
2022/01/11 10:13:41;;;;;;;7.87;3.47;;;;;;;-3.59;90.86;146783.22;1754802;80;21107;-61
2022/01/11 10:16:25;;;;;;;13.60;4.53;;;;;;;-3.62;90.04;146776.78;1739642;80;21104;-61
2022/01/11 10:18:55;;;;;;;11.03;3.67;;;;;;;-3.62;90.14;146775.53;1749204;80;21045;-61
2022/01/11 10:21:41;;;;;;;7.67;4.33;;;;;;;-3.62;89.91;146775.53;1747640;80;21525;-61
2022/01/11 10:24:39;;;;;;;13.30;4.73;;;;;;;-3.61;89.88;146778.09;1747434;80;21119;-62
2022/01/11 10:27:27;;;;;;;9.70;4.07;;;;;;;-3.57;90.70;146787.03;1744743;80;21052;-61
2022/01/11 10:30:07;;;;;;;9.70;4.97;;;;;;;-3.52;89.01;146801.17;1745396;80;21135;-62
2022/01/11 10:32:45;;;;;;;9.57;3.93;;;;;;;-3.52;87.71;146801.17;1746433;80;21970;-64
2022/01/11 10:35:23;;;;;;;7.20;3.73;;;;;;;-3.56;86.67;146789.61;1750827;80;21675;-63
2022/01/11 10:37:55;;;;;;;18.00;4.70;;;;;;;-3.58;86.17;146785.78;1748430;80;21020;-63
2022/01/11 10:40:32;;;;;;;15.60;4.10;;;;;;;-3.60;86.16;146780.66;1747732;81;21085;-62
2022/01/11 10:43:04;;;;;;;11.33;3.90;;;;;;;-3.59;86.54;146783.22;1727015;80;21051;-63
2022/01/11 10:45:35;;;;;;;9.93;4.33;;;;;;;-3.57;86.85;146788.34;1750987;80;21099;-61
2022/01/11 10:48:06;;;;;;;8.93;4.10;;;;;;;-3.58;85.88;146785.78;1750547;80;21048;-62
2022/01/11 10:50:49;;;;;;;8.37;3.90;;;;;;;-3.56;86.25;146790.91;1747676;80;21150;-61
2022/01/11 10:53:26;;;;;;;22.50;4.43;;;;;;;-3.50;86.41;146806.30;1746792;80;21113;-63
2022/01/11 10:55:55;;;;;;;9.53;3.93;;;;;;;-3.45;85.92;146819.12;1706126;81;21014;-62
2022/01/11 10:58:23;;;;;;;9.80;4.63;;;;;;;-3.46;84.80;146815.30;1671515;83;21795;-61
2022/01/11 11:00:52;;;;;;;14.97;4.73;;;;;;;-3.46;85.96;146816.55;1696930;82;21464;-64
2022/01/11 11:03:22;;;;;;;10.20;4.70;;;;;;;-3.41;87.24;146826.86;1709327;83;21076;-61
2022/01/11 11:05:59;;;;;;;8.80;4.90;;;;;;;-3.41;87.33;146826.86;1708073;82;21157;-62
2022/01/11 11:08:35;;;;;;;9.27;4.57;;;;;;;-3.41;87.86;146828.13;1709622;82;21083;-61
2022/01/11 11:11:07;;;;;;;15.57;5.57;;;;;;;-3.48;87.68;146811.42;1695111;83;21178;-61
2022/01/11 11:13:40;;;;;;;10.67;5.20;;;;;;;-3.47;88.16;146813.98;1699483;82;22146;-61
2022/01/11 11:16:16;;;;;;;20.35;5.65;;;;;;;-3.46;86.50;146816.55;1705695;82;27584;-62
2022/01/11 11:18:54;;;;;;;11.33;5.20;;;;;;;-3.45;86.37;146819.12;1705921;83;21090;-63
2022/01/11 11:21:26;;;;;;;11.10;5.13;;;;;;;-3.46;86.05;146816.55;1707273;82;21099;-63
2022/01/11 11:24:01;;;;;;;11.20;5.30;;;;;;;-3.46;86.71;146815.30;1703881;83;21118;-63
2022/01/11 11:26:31;;;;;;;;;;;;;;;-3.45;86.82;146819.12;1709205;83;21079;-64
2022/01/11 11:28:59;;;;;;;10.53;5.20;;;;;;;-3.46;86.11;146816.55;1705408;82;20490;-63